Time;durP1;ratioP1;P1;durP2;ratioP2;P2;SDS_P1;SDS_P2;PMS_P1;PMS_P2;Temp;Humidity;BMP_temperature;BMP_pressure;BME280_temperature;BME280_humidity;BME280_pressure;Samples;Min_cycle;Max_cycle;Signal;HPM_P1;HPM_P2
2023/04/21 00:00:51;;;;;;;6.15;3.85;;;12.50;79.40;;;;;;5037621;28;20444;-62
2023/04/21 00:03:19;;;;;;;6.18;3.72;;;12.50;79.40;;;;;;5036916;28;20104;-61
2023/04/21 00:05:47;;;;;;;5.18;3.55;;;12.50;79.40;;;;;;5036174;28;20116;-62
2023/04/21 00:08:13;;;;;;;6.53;3.72;;;12.50;79.40;;;;;;5037195;28;20052;-62
2023/04/21 00:10:39;;;;;;;5.40;3.55;;;12.50;79.40;;;;;;5035916;28;20025;-62
2023/04/21 00:13:06;;;;;;;5.43;3.60;;;12.50;79.40;;;;;;5037117;28;20130;-62
2023/04/21 00:15:32;;;;;;;5.50;3.50;;;12.50;79.30;;;;;;5037076;28;20039;-61
2023/04/21 00:17:58;;;;;;;5.38;3.35;;;12.50;79.30;;;;;;5037030;28;20112;-62
2023/04/21 00:20:25;;;;;;;5.20;3.30;;;12.50;79.30;;;;;;5037007;28;20504;-62
2023/04/21 00:22:53;;;;;;;5.13;2.90;;;12.50;79.00;;;;;;5036820;28;20033;-62
2023/04/21 00:25:19;;;;;;;5.43;3.28;;;12.50;79.10;;;;;;5036894;28;20029;-62
2023/04/21 00:27:45;;;;;;;5.60;3.88;;;12.50;79.00;;;;;;5036596;28;20434;-62
2023/04/21 00:30:11;;;;;;;5.07;3.40;;;12.50;79.30;;;;;;5036551;28;20045;-61
2023/04/21 00:32:37;;;;;;;6.15;3.42;;;12.50;79.20;;;;;;5036676;28;20048;-62
2023/04/21 00:35:03;;;;;;;4.50;3.10;;;12.50;79.00;;;;;;5036980;28;20498;-62
2023/04/21 00:37:29;;;;;;;4.65;3.30;;;12.50;78.90;;;;;;5036398;28;20072;-61
2023/04/21 00:39:56;;;;;;;4.90;3.17;;;12.50;78.90;;;;;;5036290;28;20409;-62
2023/04/21 00:42:21;;;;;;;5.55;3.45;;;12.50;78.90;;;;;;5036136;28;20080;-62
2023/04/21 00:44:47;;;;;;;4.35;3.22;;;12.50;79.00;;;;;;5036763;28;20021;-62
2023/04/21 00:47:14;;;;;;;4.82;3.10;;;12.50;79.10;;;;;;5036732;28;20109;-62
2023/04/21 00:49:40;;;;;;;4.10;2.95;;;12.50;79.00;;;;;;5036078;28;20438;-62
2023/04/21 00:52:07;;;;;;;3.83;2.75;;;12.50;79.10;;;;;;5035653;28;20057;-62
2023/04/21 00:54:35;;;;;;;4.80;3.30;;;12.50;79.00;;;;;;5035393;28;20026;-62
2023/04/21 00:57:02;;;;;;;4.78;2.90;;;12.50;78.80;;;;;;5036288;28;20460;-61
2023/04/21 00:59:29;;;;;;;4.10;2.78;;;12.50;78.80;;;;;;5036010;28;20071;-61
2023/04/21 01:01:55;;;;;;;4.72;2.80;;;12.50;78.70;;;;;;5036099;28;20033;-62
2023/04/21 01:04:21;;;;;;;3.50;2.45;;;12.50;78.60;;;;;;5036088;28;20100;-61
2023/04/21 01:06:47;;;;;;;4.65;2.70;;;12.50;78.60;;;;;;5035891;28;20026;-61
2023/04/21 01:09:13;;;;;;;4.90;3.13;;;12.50;78.60;;;;;;5036085;28;20037;-62
2023/04/21 01:11:40;;;;;;;3.63;2.70;;;12.50;78.60;;;;;;5036014;28;20029;-61
2023/04/21 01:14:06;;;;;;;4.50;2.80;;;12.50;78.50;;;;;;5036030;28;20120;-61
2023/04/21 01:16:33;;;;;;;3.33;2.50;;;12.60;78.60;;;;;;5035696;28;20454;-61
2023/04/21 01:19:04;;;;;;;3.22;2.63;;;12.60;78.60;;;;;;5035623;28;20029;-62
2023/04/21 01:21:41;;;;;;;4.95;2.80;;;12.60;78.50;;;;;;5035827;28;20033;-61
2023/04/21 01:24:08;;;;;;;3.83;2.50;;;12.50;78.40;;;;;;5035525;28;20060;-62
2023/04/21 01:26:34;;;;;;;3.45;2.50;;;12.60;78.60;;;;;;5036119;28;20108;-62
2023/04/21 01:29:00;;;;;;;4.85;3.03;;;12.60;78.50;;;;;;5035572;28;20425;-62
2023/04/21 01:31:26;;;;;;;5.32;3.20;;;12.50;78.90;;;;;;5035462;28;20026;-61
2023/04/21 01:33:52;;;;;;;5.30;2.40;;;12.50;78.90;;;;;;5036044;28;20087;-61
2023/04/21 01:36:18;;;;;;;6.28;2.72;;;12.40;78.80;;;;;;5035762;28;20037;-62
2023/04/21 01:38:44;;;;;;;3.05;2.40;;;12.40;78.60;;;;;;5035466;28;20040;-62
2023/04/21 01:41:10;;;;;;;3.05;2.20;;;12.40;78.60;;;;;;5035728;28;20025;-62
2023/04/21 01:43:37;;;;;;;3.47;2.50;;;12.50;78.60;;;;;;5035290;28;20431;-61
2023/04/21 01:46:04;;;;;;;3.88;2.65;;;12.50;78.50;;;;;;5035311;28;20402;-61
2023/04/21 01:48:30;;;;;;;4.93;2.30;;;12.50;78.50;;;;;;5035349;28;20017;-62
2023/04/21 01:50:56;;;;;;;4.03;2.53;;;12.50;78.50;;;;;;5035029;28;20033;-62
2023/04/21 01:53:22;;;;;;;3.70;2.45;;;12.50;78.70;;;;;;5035586;28;20029;-62
2023/04/21 01:55:48;;;;;;;4.13;2.60;;;12.50;78.80;;;;;;5035585;28;20504;-62
2023/04/21 01:58:14;;;;;;;3.58;2.55;;;12.50;78.80;;;;;;5035809;28;20029;-62
2023/04/21 02:00:40;;;;;;;3.58;2.45;;;12.50;78.70;;;;;;5034201;28;20063;-61
2023/04/21 02:03:06;;;;;;;3.72;2.30;;;12.40;78.60;;;;;;5035131;28;20028;-62
2023/04/21 02:05:32;;;;;;;2.97;2.33;;;12.40;78.60;;;;;;5036011;28;20381;-62
2023/04/21 02:07:58;;;;;;;4.32;2.55;;;12.50;78.50;;;;;;5039479;28;20442;-61
2023/04/21 02:10:24;;;;;;;4.03;2.80;;;12.40;78.70;;;;;;5039717;28;20041;-62
2023/04/21 02:12:50;;;;;;;3.40;2.38;;;12.40;78.80;;;;;;5038994;28;20029;-62
2023/04/21 02:15:16;;;;;;;3.00;2.22;;;12.40;78.60;;;;;;5039367;28;20021;-62
2023/04/21 02:17:43;;;;;;;3.22;2.40;;;12.40;78.60;;;;;;5039322;28;20029;-62
2023/04/21 02:20:11;;;;;;;2.55;2.22;;;12.40;78.50;;;;;;5039234;28;20052;-61
2023/04/21 02:22:37;;;;;;;2.60;2.20;;;12.40;78.40;;;;;;5039039;28;20029;-62
2023/04/21 02:25:04;;;;;;;3.35;2.25;;;12.40;78.40;;;;;;5038060;28;20415;-61
2023/04/21 02:27:30;;;;;;;4.18;2.75;;;12.40;78.30;;;;;;5039126;28;20521;-62
2023/04/21 02:29:56;;;;;;;3.72;2.40;;;12.50;78.40;;;;;;5038801;28;20060;-62
2023/04/21 02:32:22;;;;;;;3.60;2.50;;;12.50;78.20;;;;;;5038776;28;20346;-61
2023/04/21 02:34:48;;;;;;;4.10;2.72;;;12.50;78.20;;;;;;5038725;28;20032;-61
2023/04/21 02:37:14;;;;;;;3.17;2.60;;;12.50;78.20;;;;;;5038966;28;20025;-62
2023/04/21 02:39:42;;;;;;;3.60;2.63;;;12.50;78.10;;;;;;5038878;28;20021;-62
2023/04/21 02:42:08;;;;;;;4.18;2.50;;;12.50;78.00;;;;;;5038508;28;20025;-61
2023/04/21 02:44:37;;;;;;;4.72;2.67;;;12.50;78.00;;;;;;5038984;28;20033;-62
2023/04/21 02:47:03;;;;;;;3.30;2.40;;;12.50;77.90;;;;;;5038496;28;20120;-61
2023/04/21 02:49:29;;;;;;;3.55;2.47;;;12.50;78.00;;;;;;5038673;28;20577;-62
2023/04/21 02:51:55;;;;;;;4.05;2.17;;;12.50;77.90;;;;;;5038064;28;20109;-62
2023/04/21 02:54:21;;;;;;;3.45;2.40;;;12.50;77.80;;;;;;5038558;28;20083;-62
2023/04/21 02:56:47;;;;;;;3.17;2.13;;;12.50;77.80;;;;;;5038308;28;20044;-62
2023/04/21 02:59:15;;;;;;;3.25;2.15;;;12.40;77.70;;;;;;5037325;28;20030;-62
2023/04/21 03:01:41;;;;;;;1.90;1.80;;;12.40;77.70;;;;;;5038396;28;20117;-62
2023/04/21 03:04:07;;;;;;;2.78;2.00;;;12.50;77.60;;;;;;5038591;28;20534;-62
2023/04/21 03:06:33;;;;;;;1.92;1.73;;;12.50;77.50;;;;;;5038114;28;20092;-62
2023/04/21 03:08:59;;;;;;;2.25;2.00;;;12.50;77.40;;;;;;5038583;28;20018;-62
2023/04/21 03:11:25;;;;;;;2.95;2.08;;;12.50;77.40;;;;;;5038178;28;20108;-62
2023/04/21 03:13:51;;;;;;;2.47;2.05;;;12.50;77.40;;;;;;5037097;28;20351;-61
2023/04/21 03:16:18;;;;;;;2.00;1.80;;;12.50;77.40;;;;;;5037921;28;20036;-62
2023/04/21 03:18:44;;;;;;;1.58;1.40;;;12.50;77.30;;;;;;5037176;28;20072;-61
2023/04/21 03:21:10;;;;;;;1.60;1.50;;;12.50;77.30;;;;;;5036832;28;20049;-61
2023/04/21 03:23:36;;;;;;;1.67;1.58;;;12.50;77.20;;;;;;5037990;28;20040;-62
2023/04/21 03:26:08;;;;;;;2.63;1.50;;;12.50;77.30;;;;;;5037771;28;20026;-62
2023/04/21 03:28:34;;;;;;;2.40;1.60;;;12.50;77.20;;;;;;5037945;28;20520;-62
2023/04/21 03:31:00;;;;;;;1.30;1.20;;;12.50;77.20;;;;;;5037583;28;20025;-62
2023/04/21 03:33:26;;;;;;;2.28;1.33;;;12.50;77.20;;;;;;5037594;28;20071;-62
2023/04/21 03:35:52;;;;;;;1.88;1.33;;;12.50;77.20;;;;;;5038112;28;20052;-61
2023/04/21 03:38:18;;;;;;;1.45;1.30;;;12.50;77.20;;;;;;5037498;28;20455;-61
2023/04/21 03:40:44;;;;;;;2.47;1.88;;;12.50;77.10;;;;;;5037421;28;20044;-62
2023/04/21 03:43:09;;;;;;;3.22;1.50;;;12.50;77.20;;;;;;5037324;28;20033;-62
2023/04/21 03:45:35;;;;;;;1.55;1.30;;;12.40;77.20;;;;;;5037934;28;20026;-61
2023/04/21 03:48:02;;;;;;;2.00;1.40;;;12.40;77.20;;;;;;5037350;28;20104;-61
2023/04/21 03:50:28;;;;;;;1.95;1.75;;;12.40;77.20;;;;;;5037153;28;20354;-62
2023/04/21 03:52:54;;;;;;;2.95;1.98;;;12.40;77.30;;;;;;5037077;28;20053;-62
2023/04/21 03:55:20;;;;;;;1.90;1.70;;;12.40;77.30;;;;;;5037215;28;20030;-62
2023/04/21 03:57:46;;;;;;;4.47;2.00;;;12.40;77.40;;;;;;5037413;28;20454;-62
2023/04/21 04:00:12;;;;;;;4.20;2.20;;;12.40;77.30;;;;;;5037404;28;20108;-62
2023/04/21 04:02:39;;;;;;;3.00;1.75;;;12.40;77.50;;;;;;5036841;28;20067;-62
2023/04/21 04:05:05;;;;;;;2.53;1.88;;;12.40;77.60;;;;;;5036958;28;20032;-62
2023/04/21 04:07:32;;;;;;;2.13;1.75;;;12.40;77.50;;;;;;5036902;28;20028;-62
2023/04/21 04:09:58;;;;;;;2.67;2.10;;;12.40;77.50;;;;;;5036895;28;20431;-62
2023/04/21 04:12:25;;;;;;;2.10;1.77;;;12.40;77.60;;;;;;5036866;28;20033;-61
2023/04/21 04:14:51;;;;;;;2.60;1.88;;;12.40;77.60;;;;;;5036765;28;20032;-62
2023/04/21 04:17:17;;;;;;;3.78;2.40;;;12.30;77.60;;;;;;5036793;28;20033;-62
2023/04/21 04:19:43;;;;;;;3.38;2.05;;;12.40;77.70;;;;;;5036983;28;20025;-61
2023/04/21 04:22:09;;;;;;;2.92;2.13;;;12.30;77.60;;;;;;5036860;28;20018;-61
2023/04/21 04:24:35;;;;;;;3.88;2.05;;;12.40;77.60;;;;;;5036584;28;20450;-62
2023/04/21 04:27:02;;;;;;;5.15;1.92;;;12.30;77.50;;;;;;5037137;28;20022;-62
2023/04/21 04:29:28;;;;;;;3.05;2.33;;;12.30;77.40;;;;;;5035499;28;20036;-62
2023/04/21 04:31:56;;;;;;;3.58;2.47;;;12.40;77.60;;;;;;5036407;28;20036;-62
2023/04/21 04:34:23;;;;;;;4.20;1.95;;;12.30;77.60;;;;;;5036393;28;20025;-62
2023/04/21 04:36:50;;;;;;;2.35;1.85;;;12.30;77.50;;;;;;5036664;28;20228;-62
2023/04/21 04:39:16;;;;;;;2.47;1.70;;;12.30;77.60;;;;;;5036278;28;20030;-62
2023/04/21 04:41:42;;;;;;;2.30;1.77;;;12.20;77.70;;;;;;5036507;28;20032;-62
2023/04/21 04:44:08;;;;;;;1.60;1.50;;;12.20;77.90;;;;;;5036199;28;20104;-62
2023/04/21 04:46:34;;;;;;;1.67;1.40;;;12.20;77.70;;;;;;5036167;28;20028;-62
2023/04/21 04:49:00;;;;;;;1.92;1.40;;;12.20;78.00;;;;;;5036179;28;20351;-61
2023/04/21 04:51:27;;;;;;;4.68;1.90;;;12.20;78.10;;;;;;5035997;28;20042;-62
2023/04/21 04:53:53;;;;;;;3.50;1.83;;;12.20;78.10;;;;;;5036029;28;20446;-62
2023/04/21 04:56:19;;;;;;;1.83;1.55;;;12.20;77.90;;;;;;5036564;28;20328;-62
2023/04/21 04:58:45;;;;;;;1.85;1.70;;;12.20;77.80;;;;;;5036529;28;20037;-62
2023/04/21 05:01:12;;;;;;;3.15;1.92;;;12.20;78.00;;;;;;5035869;28;20029;-61
2023/04/21 05:03:39;;;;;;;4.50;2.00;;;12.20;78.00;;;;;;5034816;28;20351;-62
2023/04/21 05:06:05;;;;;;;2.97;2.10;;;12.20;78.00;;;;;;5035827;28;20025;-62
2023/04/21 05:08:31;;;;;;;2.78;2.03;;;12.20;77.90;;;;;;5035848;28;20029;-62
2023/04/21 05:10:57;;;;;;;2.53;2.08;;;12.30;77.90;;;;;;5035953;28;20017;-62
2023/04/21 05:13:23;;;;;;;4.28;2.10;;;12.20;77.80;;;;;;5035758;28;20060;-62
2023/04/21 05:15:55;;;;;;;3.45;2.13;;;12.30;77.80;;;;;;5035720;28;20075;-62
2023/04/21 05:18:22;;;;;;;3.55;2.20;;;12.30;77.80;;;;;;5036264;28;20029;-62
2023/04/21 05:20:48;;;;;;;2.95;2.03;;;12.40;77.80;;;;;;5035841;28;20029;-62
2023/04/21 05:23:14;;;;;;;3.33;2.20;;;12.40;77.70;;;;;;5035550;28;20477;-62
2023/04/21 05:25:40;;;;;;;4.32;2.47;;;12.40;77.70;;;;;;5036088;28;20048;-62
2023/04/21 05:28:06;;;;;;;3.38;2.20;;;12.40;77.80;;;;;;5035494;28;20053;-62
2023/04/21 05:30:32;;;;;;;6.18;2.55;;;12.40;77.70;;;;;;5035442;28;20028;-62
2023/04/21 05:32:58;;;;;;;2.42;2.00;;;12.40;77.90;;;;;;5035480;28;20025;-62
2023/04/21 05:35:24;;;;;;;2.42;1.88;;;12.40;77.90;;;;;;5036003;28;20029;-61
2023/04/21 05:37:50;;;;;;;2.10;1.88;;;12.40;77.80;;;;;;5035431;28;20032;-62
2023/04/21 05:40:16;;;;;;;2.30;1.90;;;12.40;78.00;;;;;;5035110;28;20442;-62
2023/04/21 05:42:42;;;;;;;2.78;1.73;;;12.40;77.90;;;;;;5035213;28;20026;-62
2023/04/21 05:45:08;;;;;;;2.65;1.80;;;12.50;77.90;;;;;;5035911;28;20111;-62
2023/04/21 05:47:34;;;;;;;2.45;1.95;;;12.50;78.00;;;;;;5035586;28;20068;-61
2023/04/21 05:50:01;;;;;;;2.85;2.30;;;12.50;78.00;;;;;;5035555;28;20071;-61
2023/04/21 05:52:27;;;;;;;3.20;1.80;;;12.50;77.90;;;;;;5035013;28;20180;-62
2023/04/21 05:54:52;;;;;;;3.90;2.00;;;12.50;77.60;;;;;;5035805;28;20425;-62
2023/04/21 05:57:19;;;;;;;2.80;2.05;;;12.50;77.50;;;;;;5035248;28;20025;-62
2023/04/21 05:59:44;;;;;;;2.75;2.05;;;12.60;77.50;;;;;;5035731;28;20319;-62
2023/04/21 06:02:11;;;;;;;3.33;1.75;;;12.60;77.20;;;;;;5035143;28;20465;-61
2023/04/21 06:04:37;;;;;;;2.80;2.10;;;12.60;77.10;;;;;;5035329;28;20026;-60
2023/04/21 06:07:07;;;;;;;3.33;1.85;;;12.70;77.20;;;;;;5035584;28;20026;-60
2023/04/21 06:09:34;;;;;;;5.40;2.30;;;12.80;77.10;;;;;;5035330;28;20040;-60
2023/04/21 06:12:00;;;;;;;2.80;1.98;;;12.80;76.90;;;;;;5035270;28;20431;-61
2023/04/21 06:14:26;;;;;;;5.32;2.50;;;12.90;76.80;;;;;;5035000;28;20026;-61
2023/04/21 06:16:52;;;;;;;3.88;2.38;;;12.90;76.60;;;;;;5035271;28;20049;-60
2023/04/21 06:19:19;;;;;;;3.80;2.22;;;13.10;76.60;;;;;;5035518;28;20021;-61
2023/04/21 06:21:44;;;;;;;4.10;2.40;;;13.10;76.40;;;;;;5034877;28;20029;-61
2023/04/21 06:24:10;;;;;;;3.03;2.00;;;13.30;76.30;;;;;;5034849;28;20026;-61
2023/04/21 06:26:36;;;;;;;3.22;2.28;;;13.40;75.80;;;;;;5035195;28;20022;-61
2023/04/21 06:29:02;;;;;;;3.22;2.10;;;13.50;75.20;;;;;;5035453;28;20025;-61
2023/04/21 06:31:28;;;;;;;4.25;2.38;;;13.60;75.60;;;;;;5033879;28;20021;-61
2023/04/21 06:33:54;;;;;;;4.07;2.50;;;13.60;75.30;;;;;;5035164;28;20414;-61
2023/04/21 06:36:21;;;;;;;4.68;2.38;;;13.70;74.70;;;;;;5035394;28;20132;-61
2023/04/21 06:38:48;;;;;;;3.67;2.38;;;13.70;74.40;;;;;;5034782;28;20509;-61
2023/04/21 06:41:14;;;;;;;4.95;2.60;;;13.80;74.40;;;;;;5034759;28;20518;-61
2023/04/21 06:43:40;;;;;;;6.47;2.95;;;13.80;74.20;;;;;;5034715;28;20109;-61
2023/04/21 06:46:06;;;;;;;4.13;2.95;;;13.90;74.10;;;;;;5035318;28;20152;-61
2023/04/21 06:48:32;;;;;;;4.68;2.80;;;13.90;74.30;;;;;;5034713;28;20022;-61
2023/04/21 06:50:59;;;;;;;6.95;5.28;;;14.00;74.20;;;;;;5034639;28;20022;-61
2023/04/21 06:53:25;;;;;;;6.43;3.42;;;14.00;73.70;;;;;;5036651;28;20489;-61
2023/04/21 06:55:52;;;;;;;4.60;2.95;;;14.00;73.20;;;;;;5038280;28;20033;-61
2023/04/21 06:58:18;;;;;;;3.65;2.67;;;14.10;73.30;;;;;;5038503;28;20025;-61
2023/04/21 07:00:43;;;;;;;5.07;3.50;;;14.10;73.60;;;;;;5038396;28;20386;-61
2023/04/21 07:03:10;;;;;;;4.25;2.92;;;14.20;73.30;;;;;;5038113;28;20017;-61
2023/04/21 07:05:35;;;;;;;6.13;2.70;;;14.30;73.00;;;;;;5038164;28;20059;-61
2023/04/21 07:08:01;;;;;;;3.92;2.40;;;14.40;72.80;;;;;;5038605;28;20032;-61
2023/04/21 07:10:28;;;;;;;4.18;2.30;;;14.40;73.20;;;;;;5038076;28;20355;-61
2023/04/21 07:12:55;;;;;;;4.13;2.80;;;14.50;73.20;;;;;;5038280;28;20033;-61
2023/04/21 07:15:21;;;;;;;3.00;2.47;;;14.70;72.40;;;;;;5038234;28;20076;-61
2023/04/21 07:17:47;;;;;;;6.93;3.05;;;14.80;72.10;;;;;;5038192;28;20026;-61
2023/04/21 07:20:13;;;;;;;3.25;2.47;;;14.90;71.80;;;;;;5038153;28;20025;-61
2023/04/21 07:22:39;;;;;;;3.28;2.40;;;15.00;71.50;;;;;;5038236;28;20026;-61
2023/04/21 07:25:06;;;;;;;4.10;2.30;;;15.20;71.00;;;;;;5038295;28;20026;-61
2023/04/21 07:27:37;;;;;;;3.13;2.20;;;15.40;71.50;;;;;;5037672;28;20100;-61
2023/04/21 07:30:04;;;;;;;2.80;2.20;;;15.60;71.20;;;;;;5037538;28;20438;-61
2023/04/21 07:32:31;;;;;;;3.80;2.30;;;15.80;71.00;;;;;;5036683;28;20017;-61
2023/04/21 07:34:57;;;;;;;3.13;2.53;;;15.90;68.50;;;;;;5037863;28;20029;-61
2023/04/21 07:37:23;;;;;;;5.30;2.60;;;16.00;69.10;;;;;;5038310;28;20036;-61
2023/04/21 07:39:49;;;;;;;2.55;2.30;;;16.00;69.00;;;;;;5037526;28;20056;-61
2023/04/21 07:42:15;;;;;;;3.30;2.40;;;16.10;67.00;;;;;;5037452;28;20057;-61
2023/04/21 07:44:41;;;;;;;2.35;2.15;;;16.10;67.70;;;;;;5037615;28;20354;-61
2023/04/21 07:47:07;;;;;;;3.15;2.33;;;16.10;67.50;;;;;;5036415;28;20018;-61
2023/04/21 07:49:33;;;;;;;2.53;2.33;;;16.20;67.20;;;;;;5037307;28;20071;-61
2023/04/21 07:51:59;;;;;;;3.25;2.55;;;16.20;67.60;;;;;;5037122;28;20455;-61
2023/04/21 07:54:25;;;;;;;3.78;2.70;;;16.30;68.20;;;;;;5037236;28;20065;-61
2023/04/21 07:56:51;;;;;;;4.35;3.03;;;16.40;67.40;;;;;;5037220;28;20049;-61
2023/04/21 07:59:17;;;;;;;4.82;3.05;;;16.50;66.90;;;;;;5037166;28;20429;-61
2023/04/21 08:01:43;;;;;;;5.45;2.85;;;16.60;66.80;;;;;;5037138;28;20057;-61
2023/04/21 08:04:09;;;;;;;4.05;2.47;;;16.70;66.80;;;;;;5037320;28;20064;-61
2023/04/21 08:06:35;;;;;;;3.10;2.47;;;16.80;66.40;;;;;;5037743;28;20029;-61
2023/04/21 08:09:01;;;;;;;3.88;2.90;;;16.90;66.20;;;;;;5037494;28;20026;-61
2023/04/21 08:11:27;;;;;;;6.15;2.60;;;17.10;66.10;;;;;;5035878;28;20028;-61
2023/04/21 08:13:53;;;;;;;3.35;2.45;;;17.20;65.70;;;;;;5036860;28;20036;-61
2023/04/21 08:16:20;;;;;;;2.90;2.58;;;17.30;65.40;;;;;;5037598;28;20036;-62
2023/04/21 08:18:45;;;;;;;3.65;2.72;;;17.30;65.20;;;;;;5036745;28;20044;-61
2023/04/21 08:21:12;;;;;;;3.10;2.80;;;17.40;65.40;;;;;;5036716;28;20026;-62
2023/04/21 08:23:39;;;;;;;3.13;2.50;;;17.40;63.90;;;;;;5036592;28;20044;-62
2023/04/21 08:26:05;;;;;;;4.72;2.55;;;17.40;64.40;;;;;;5036626;28;20028;-62
2023/04/21 08:28:31;;;;;;;4.43;2.90;;;17.30;64.70;;;;;;5037108;28;20084;-61
2023/04/21 08:30:57;;;;;;;3.40;2.60;;;17.30;63.70;;;;;;5036367;28;20350;-62
2023/04/21 08:33:23;;;;;;;3.45;2.80;;;17.30;63.90;;;;;;5037024;28;20071;-61
2023/04/21 08:35:49;;;;;;;3.95;2.70;;;17.20;63.90;;;;;;5036361;28;20029;-61
2023/04/21 08:38:14;;;;;;;4.00;2.30;;;17.20;64.80;;;;;;5036338;28;20044;-62
2023/04/21 08:40:41;;;;;;;4.95;2.72;;;17.10;64.60;;;;;;5036496;28;20394;-62
2023/04/21 08:43:07;;;;;;;5.32;3.20;;;17.10;65.00;;;;;;5035417;28;20335;-62
2023/04/21 08:45:34;;;;;;;5.03;3.67;;;17.10;65.10;;;;;;5035438;28;20028;-61
2023/04/21 08:48:03;;;;;;;7.15;4.10;;;17.10;65.40;;;;;;5036481;28;20049;-62
2023/04/21 08:50:31;;;;;;;4.72;3.25;;;17.10;64.80;;;;;;5036402;28;20049;-62
2023/04/21 08:52:57;;;;;;;4.18;3.15;;;17.10;65.60;;;;;;5035946;28;20476;-62
2023/04/21 08:55:29;;;;;;;7.47;4.38;;;17.00;65.10;;;;;;5036336;28;20025;-62
2023/04/21 08:57:55;;;;;;;5.35;3.92;;;17.00;63.60;;;;;;5036265;28;20026;-62
2023/04/21 09:00:22;;;;;;;7.55;4.88;;;16.90;63.60;;;;;;5036247;28;20021;-62
2023/04/21 09:02:56;;;;;;;7.43;4.50;;;16.90;64.10;;;;;;5035806;28;20030;-61
2023/04/21 09:05:27;;;;;;;6.72;4.30;;;16.90;63.90;;;;;;5035056;28;20018;-61
2023/04/21 09:08:13;;;;;;;7.38;4.60;;;16.90;63.70;;;;;;5035785;28;20056;-62
2023/04/21 09:10:47;;;;;;;6.07;3.97;;;16.80;63.50;;;;;;5036040;28;20060;-61
2023/04/21 09:13:14;;;;;;;8.95;5.00;;;16.80;64.10;;;;;;5034902;28;20087;-61
2023/04/21 09:15:42;;;;;;;11.90;6.60;;;16.80;63.40;;;;;;5035495;28;20022;-62
2023/04/21 09:18:20;;;;;;;7.65;4.78;;;16.80;63.80;;;;;;5036256;28;20033;-61
2023/04/21 09:20:51;;;;;;;6.57;4.28;;;16.70;64.30;;;;;;5036168;28;20030;-61
2023/04/21 09:23:17;;;;;;;7.40;4.18;;;16.70;64.00;;;;;;5036131;28;20040;-62
2023/04/21 09:25:44;;;;;;;5.82;4.13;;;16.70;64.40;;;;;;5035902;28;20346;-62
2023/04/21 09:28:13;;;;;;;5.93;4.35;;;16.60;64.10;;;;;;5035853;28;20068;-61
2023/04/21 09:30:41;;;;;;;7.13;4.15;;;16.70;65.20;;;;;;5036021;28;20446;-61
2023/04/21 09:33:14;;;;;;;6.80;4.40;;;16.60;65.10;;;;;;5035799;28;20056;-62
2023/04/21 09:35:40;;;;;;;7.07;4.22;;;16.70;65.40;;;;;;5034620;28;20350;-61
2023/04/21 09:38:11;;;;;;;6.78;4.40;;;16.70;64.70;;;;;;5035486;28;20112;-61
2023/04/21 09:40:39;;;;;;;6.82;4.38;;;16.70;65.50;;;;;;5035353;28;20018;-61
2023/04/21 09:43:05;;;;;;;6.00;4.63;;;16.70;66.10;;;;;;5035260;28;20034;-61
2023/04/21 09:45:32;;;;;;;11.38;7.40;;;16.70;66.40;;;;;;5035316;28;20022;-62
2023/04/21 09:48:00;;;;;;;11.43;6.78;;;16.70;66.50;;;;;;5034388;28;20505;-61
2023/04/21 09:50:27;;;;;;;7.25;4.15;;;16.80;67.10;;;;;;5035219;28;20040;-61
2023/04/21 09:52:55;;;;;;;6.40;4.03;;;16.70;66.90;;;;;;5035041;28;20046;-62
2023/04/21 09:55:27;;;;;;;4.10;3.30;;;16.70;67.00;;;;;;5034637;28;20025;-62
2023/04/21 09:57:59;;;;;;;5.90;3.15;;;16.80;67.50;;;;;;5034299;28;20036;-62
2023/04/21 10:00:30;;;;;;;4.00;3.00;;;16.80;67.30;;;;;;5035478;28;20022;-62
2023/04/21 10:02:59;;;;;;;3.38;2.70;;;16.80;67.60;;;;;;5035086;28;20029;-61
2023/04/21 10:05:26;;;;;;;3.78;2.85;;;16.80;67.30;;;;;;5036198;28;20060;-61
2023/04/21 10:07:52;;;;;;;4.55;3.45;;;16.80;67.60;;;;;;5035032;28;20055;-61
2023/04/21 10:10:22;;;;;;;4.93;3.00;;;16.80;67.20;;;;;;5035654;28;20026;-62
2023/04/21 10:12:50;;;;;;;4.88;2.97;;;16.80;67.30;;;;;;5034148;28;20033;-62
2023/04/21 10:15:37;;;;;;;5.47;3.55;;;16.80;67.20;;;;;;5035302;28;20026;-61
2023/04/21 10:18:22;;;;;;;5.70;3.70;;;16.90;66.90;;;;;;5035639;28;20064;-61
2023/04/21 10:21:00;;;;;;;5.38;3.50;;;16.90;66.60;;;;;;5035237;28;20064;-61
2023/04/21 10:23:35;;;;;;;5.55;3.85;;;16.90;66.40;;;;;;5035527;28;20034;-62
2023/04/21 10:26:34;;;;;;;5.88;3.75;;;16.90;66.80;;;;;;5034940;28;20427;-61
2023/04/21 10:29:03;;;;;;;8.60;4.05;;;17.00;66.00;;;;;;4977570;28;20039;-62
2023/04/21 10:31:29;;;;;;;5.40;3.58;;;17.10;66.30;;;;;;4962063;28;20130;-61
2023/04/21 10:34:07;;;;;;;4.30;3.22;;;17.20;66.20;;;;;;4978288;28;20031;-61
2023/04/21 10:36:46;;;;;;;4.47;3.15;;;17.30;65.00;;;;;;4978201;28;20097;-62
2023/04/21 10:39:35;;;;;;;5.53;3.30;;;17.40;64.90;;;;;;4978456;28;20169;-62
2023/04/21 10:42:28;;;;;;;5.30;3.00;;;17.40;63.50;;;;;;4977983;28;20039;-62
2023/04/21 10:44:56;;;;;;;4.80;3.40;;;17.50;64.30;;;;;;4975896;28;20046;-62
2023/04/21 10:47:29;;;;;;;4.95;2.72;;;17.70;65.00;;;;;;4978166;28;20054;-61
2023/04/21 10:49:57;;;;;;;3.57;2.87;;;17.90;64.90;;;;;;4977885;28;20087;-62
2023/04/21 10:52:32;;;;;;;3.92;3.15;;;18.00;62.20;;;;;;4977745;28;20046;-62
2023/04/21 10:54:58;;;;;;;3.65;2.88;;;18.00;62.70;;;;;;4978417;28;20035;-62
2023/04/21 10:57:24;;;;;;;6.45;3.17;;;18.20;63.60;;;;;;4978333;28;20057;-62
2023/04/21 10:59:50;;;;;;;6.72;3.80;;;18.30;61.40;;;;;;4977857;28;20039;-62
2023/04/21 11:02:18;;;;;;;4.78;3.45;;;18.40;61.40;;;;;;4977569;28;20034;-62
2023/04/21 11:04:46;;;;;;;4.53;3.20;;;18.40;61.10;;;;;;4984870;28;20062;-62
2023/04/21 11:07:13;;;;;;;5.18;3.17;;;18.50;61.90;;;;;;5038105;28;20049;-62
2023/04/21 11:09:40;;;;;;;6.22;3.45;;;18.60;61.80;;;;;;5038608;28;20025;-62
2023/04/21 11:12:19;;;;;;;3.72;2.75;;;18.70;60.50;;;;;;5020554;28;20359;-62
2023/04/21 11:14:49;;;;;;;4.78;3.35;;;18.70;61.90;;;;;;5038621;28;20025;-62
2023/04/21 11:17:17;;;;;;;5.30;3.35;;;18.80;61.60;;;;;;5037066;28;20033;-62
2023/04/21 11:19:48;;;;;;;5.20;3.25;;;18.80;62.30;;;;;;5036940;28;20034;-62
2023/04/21 11:22:16;;;;;;;5.97;3.60;;;18.80;61.30;;;;;;5037907;28;20028;-62
2023/04/21 11:24:47;;;;;;;6.18;3.80;;;18.90;61.10;;;;;;5038043;28;20037;-62
2023/04/21 11:27:14;;;;;;;6.93;3.85;;;18.90;60.20;;;;;;5037792;28;20021;-62
2023/04/21 11:29:40;;;;;;;8.32;4.43;;;19.00;60.30;;;;;;5038003;28;20037;-62
2023/04/21 11:32:07;;;;;;;5.53;3.65;;;19.00;58.80;;;;;;5037841;28;20029;-62
2023/04/21 11:34:37;;;;;;;6.95;3.85;;;19.10;59.90;;;;;;5037653;28;20071;-62
2023/04/21 11:37:03;;;;;;;5.95;3.78;;;19.20;59.40;;;;;;5037560;28;20505;-62
2023/04/21 11:39:29;;;;;;;7.05;3.90;;;19.20;58.80;;;;;;5037279;28;20021;-62
2023/04/21 11:41:55;;;;;;;6.18;3.95;;;19.30;58.20;;;;;;5037476;28;20048;-62
2023/04/21 11:44:33;;;;;;;6.18;4.28;;;19.40;59.60;;;;;;5037329;28;20070;-62
2023/04/21 11:46:59;;;;;;;7.63;4.20;;;19.40;57.10;;;;;;5037601;28;20430;-62
2023/04/21 11:49:29;;;;;;;6.68;3.92;;;19.40;58.00;;;;;;5037323;28;20097;-62
2023/04/21 11:51:55;;;;;;;7.20;4.32;;;19.50;57.80;;;;;;5037120;28;20133;-62
2023/04/21 11:54:23;;;;;;;6.10;3.75;;;19.50;55.90;;;;;;5037266;28;20108;-62
2023/04/21 11:56:51;;;;;;;5.38;3.80;;;19.60;57.80;;;;;;5037225;28;20021;-62
2023/04/21 11:59:22;;;;;;;6.85;4.15;;;19.70;58.70;;;;;;5037430;28;20037;-62
2023/04/21 12:01:50;;;;;;;4.10;3.40;;;19.80;57.60;;;;;;5037033;28;20025;-62
2023/04/21 12:04:21;;;;;;;6.00;3.85;;;19.90;58.00;;;;;;5037571;28;20091;-62
2023/04/21 12:06:58;;;;;;;5.43;3.60;;;20.10;57.20;;;;;;5037270;28;20029;-62
2023/04/21 12:09:25;;;;;;;4.10;3.20;;;20.20;56.40;;;;;;5036995;28;20041;-62
2023/04/21 12:12:01;;;;;;;4.72;3.38;;;20.40;57.40;;;;;;5036876;28;20013;-62
2023/04/21 12:14:27;;;;;;;5.00;3.30;;;20.40;56.80;;;;;;5036882;28;20099;-62
2023/04/21 12:16:55;;;;;;;4.15;3.45;;;20.40;55.30;;;;;;5036874;28;20025;-62
2023/04/21 12:19:41;;;;;;;5.03;2.97;;;20.50;53.80;;;;;;5037068;28;20490;-62
2023/04/21 12:22:11;;;;;;;4.30;3.30;;;20.40;53.20;;;;;;5036642;28;20025;-62
2023/04/21 12:24:38;;;;;;;3.90;3.15;;;20.40;54.30;;;;;;5036609;28;20464;-62
2023/04/21 12:27:05;;;;;;;5.88;3.30;;;20.40;54.60;;;;;;5036677;28;20072;-62
2023/04/21 12:29:34;;;;;;;4.97;3.67;;;20.50;56.00;;;;;;5036900;28;20025;-62
2023/04/21 12:32:01;;;;;;;3.90;3.30;;;20.60;55.10;;;;;;5037066;28;20021;-62
2023/04/21 12:34:26;;;;;;;4.07;3.13;;;20.70;54.20;;;;;;5035507;28;20095;-62
2023/04/21 12:36:52;;;;;;;6.63;3.42;;;20.70;53.90;;;;;;5036476;28;20029;-62
2023/04/21 12:39:19;;;;;;;5.07;3.10;;;20.90;53.50;;;;;;5036938;28;20033;-62
2023/04/21 12:41:46;;;;;;;5.15;3.17;;;20.90;53.60;;;;;;5036278;28;20025;-62
2023/04/21 12:44:13;;;;;;;4.57;3.63;;;21.00;53.70;;;;;;5036260;28;20022;-62
2023/04/21 12:46:41;;;;;;;4.57;3.10;;;20.90;51.60;;;;;;5036526;28;20088;-62